Map

Track Data

SID SEASON NUMBER BASIN SUBBASIN NAME ISO_TIME NATURE LAT LON WMO_WIND WMO_PRES WMO_AGENCY TRACK_TYPE DIST2LAND LANDFALL IFLAG USA_AGENCY USA_ATCF_ID USA_LAT USA_LON USA_RECORD USA_STATUS USA_WIND USA_PRES USA_SSHS USA_R34_NE USA_R34_SE USA_R34_SW USA_R34_NW USA_R50_NE USA_R50_SE USA_R50_SW USA_R50_NW USA_R64_NE USA_R64_SE USA_R64_SW USA_R64_NW USA_POCI USA_ROCI USA_RMW USA_EYE TOKYO_LAT TOKYO_LON TOKYO_GRADE TOKYO_WIND TOKYO_PRES TOKYO_R50_DIR TOKYO_R50_LONG TOKYO_R50_SHORT TOKYO_R30_DIR TOKYO_R30_LONG TOKYO_R30_SHORT TOKYO_LAND CMA_LAT CMA_LON CMA_CAT CMA_WIND CMA_PRES HKO_LAT HKO_LON HKO_CAT HKO_WIND HKO_PRES NEWDELHI_LAT NEWDELHI_LON NEWDELHI_GRADE NEWDELHI_WIND NEWDELHI_PRES NEWDELHI_CI NEWDELHI_DP NEWDELHI_POCI REUNION_LAT REUNION_LON REUNION_TYPE REUNION_WIND REUNION_PRES REUNION_TNUM REUNION_CI REUNION_RMW REUNION_R34_NE REUNION_R34_SE REUNION_R34_SW REUNION_R34_NW REUNION_R50_NE REUNION_R50_SE REUNION_R50_SW REUNION_R50_NW REUNION_R64_NE REUNION_R64_SE REUNION_R64_SW REUNION_R64_NW BOM_LAT BOM_LON BOM_TYPE BOM_WIND BOM_PRES BOM_TNUM BOM_CI BOM_RMW BOM_R34_NE BOM_R34_SE BOM_R34_SW BOM_R34_NW BOM_R50_NE BOM_R50_SE BOM_R50_SW BOM_R50_NW BOM_R64_NE BOM_R64_SE BOM_R64_SW BOM_R64_NW BOM_ROCI BOM_POCI BOM_EYE BOM_POS_METHOD BOM_PRES_METHOD NADI_LAT NADI_LON NADI_CAT NADI_WIND NADI_PRES WELLINGTON_LAT WELLINGTON_LON WELLINGTON_WIND WELLINGTON_PRES DS824_LAT DS824_LON DS824_STAGE DS824_WIND DS824_PRES TD9636_LAT TD9636_LON TD9636_STAGE TD9636_WIND TD9636_PRES TD9635_LAT TD9635_LON TD9635_WIND TD9635_PRES TD9635_ROCI NEUMANN_LAT NEUMANN_LON NEUMANN_CLASS NEUMANN_WIND NEUMANN_PRES MLC_LAT MLC_LON MLC_CLASS MLC_WIND MLC_PRES USA_GUST BOM_GUST BOM_GUST_PER REUNION_GUST REUNION_GUST_PER USA_SEAHGT USA_SEARAD_NE USA_SEARAD_SE USA_SEARAD_SW USA_SEARAD_NW STORM_SPEED STORM_DIR
1898043S08055 1898 6 SI MM NOT_NAMED 1898-02-12 00:00:00 TS -8.10000 54.6000 main 731 693 _________O____ -1 -8.10000 54.6000 TC 7 214
1898043S08055 1898 6 SI MM NOT_NAMED 1898-02-12 03:00:00 TS -8.40003 54.3951 main 693 655 _________P____ -1 -8.40003 54.3951 TC 7 213
1898043S08055 1898 6 SI MM NOT_NAMED 1898-02-12 06:00:00 TS -8.70000 54.2000 main 655 617 _________O____ -1 -8.70000 54.2000 TC 7 212
1898043S08055 1898 6 SI MM NOT_NAMED 1898-02-12 09:00:00 TS -8.99996 54.0149 main 617 580 _________P____ -1 -8.99996 54.0149 TC 7 213
1898043S08055 1898 6 SI MM NOT_NAMED 1898-02-12 12:00:00 TS -9.30000 53.8000 main 580 534 _________O____ -1 -9.30000 53.8000 TC 8 219
1898043S08055 1898 6 SI MM NOT_NAMED 1898-02-12 15:00:00 TS -9.60751 53.5150 main 534 488 _________P____ -1 -9.60751 53.5150 TC 8 225
1898043S08055 1898 6 SI MM NOT_NAMED 1898-02-12 18:00:00 TS -9.90000 53.2000 main 488 448 _________O____ -1 -9.90000 53.2000 TC 8 227
1898043S08055 1898 6 SI MM NOT_NAMED 1898-02-12 21:00:00 TS -10.1574 52.9224 main 442 403 _________P____ -1 -10.1574 52.9224 TC 8 230
1898043S08055 1898 6 SI MM NOT_NAMED 1898-02-13 00:00:00 TS -10.4000 52.6000 main 403 348 _________O____ -1 -10.4000 52.6000 TC 9 235
1898043S08055 1898 6 SI MM NOT_NAMED 1898-02-13 03:00:00 TS -10.6650 52.1725 main 348 289 _________P____ -1 -10.6650 52.1725 TC 10 241
1898043S08055 1898 6 SI MM NOT_NAMED 1898-02-13 06:00:00 TS -10.9000 51.7000 main 289 240 _________O____ -1 -10.9000 51.7000 TC 10 245
1898043S08055 1898 6 SI MM NOT_NAMED 1898-02-13 09:00:00 TS -11.0723 51.2724 main 240 189 _________P____ -1 -11.0723 51.2724 TC 9 251
1898043S08055 1898 6 SI MM NOT_NAMED 1898-02-13 12:00:00 TS -11.2000 50.8000 main 189 132 _________O____ -1 -11.2000 50.8000 TC 11 258
1898043S08055 1898 6 SI MM NOT_NAMED 1898-02-13 15:00:00 TS -11.2925 50.2149 main 132 84 _________P____ -1 -11.2925 50.2149 TC 12 260
1898043S08055 1898 6 SI MM NOT_NAMED 1898-02-13 18:00:00 TS -11.4000 49.6000 main 84 57 _________O____ -1 -11.4000 49.6000 TC 12 257
1898043S08055 1898 6 SI MM NOT_NAMED 1898-02-13 21:00:00 TS -11.5624 49.0274 main 60 60 _________P____ -1 -11.5624 49.0274 TC 12 250
1898043S08055 1898 6 SI MM NOT_NAMED 1898-02-14 00:00:00 TS -11.8000 48.5000 main 78 78 _________O____ -1 -11.8000 48.5000 TC 11 240
1898043S08055 1898 6 SI MM NOT_NAMED 1898-02-14 03:00:00 TS -12.1274 48.0275 main 97 93 _________P____ -1 -12.1274 48.0275 TC 11 232
1898043S08055 1898 6 SI MM NOT_NAMED 1898-02-14 06:00:00 TS -12.5000 47.6000 main 130 117 _________O____ -1 -12.5000 47.6000 TC 11 228
1898043S08055 1898 6 SI MM NOT_NAMED 1898-02-14 09:00:00 TS -12.8574 47.1849 main 116 116 _________P____ -1 -12.8574 47.1849 TC 11 228
1898043S08055 1898 6 SI MM NOT_NAMED 1898-02-14 12:00:00 TS -13.2000 46.8000 main 131 131 _________O____ -1 -13.2000 46.8000 TC 10 228
1898043S08055 1898 6 SI MM NOT_NAMED 1898-02-14 15:00:00 TS -13.5074 46.4423 main 163 162 _________P____ -1 -13.5074 46.4423 TC 9 229
1898043S08055 1898 6 SI MM NOT_NAMED 1898-02-14 18:00:00 TS -13.8000 46.1000 main 178 169 _________O____ -1 -13.8000 46.1000 TC 9 228
1898043S08055 1898 6 SI MM NOT_NAMED 1898-02-14 21:00:00 TS -14.1225 45.7276 main 174 163 _________P____ -1 -14.1225 45.7276 TC 9 229
1898043S08055 1898 6 SI MM NOT_NAMED 1898-02-15 00:00:00 TS -14.4000 45.4000 main 169 151 _________O____ -1 -14.4000 45.4000 TC 7 230
1898043S08055 1898 6 SI MM NOT_NAMED 1898-02-15 03:00:00 TS -14.5724 45.1773 main 151 144 _________P____ -1 -14.5724 45.1773 TC 5 232
1898043S08055 1898 6 SI MM NOT_NAMED 1898-02-15 06:00:00 TS -14.7000 45.0000 main 145 136 _________O____ -1 -14.7000 45.0000 TC 4 233
1898043S08055 1898 6 SI MM NOT_NAMED 1898-02-15 09:00:00 TS -14.8425 44.8074 main 138 119 _________P____ -1 -14.8425 44.8074 TC 5 232
1898043S08055 1898 6 SI MM NOT_NAMED 1898-02-15 12:00:00 TS -15.0000 44.6000 main 124 116 _________O____ -1 -15.0000 44.6000 TC 6 232
1898043S08055 1898 6 SI MM NOT_NAMED 1898-02-15 15:00:00 TS -15.1925 44.3500 main 116 102 _________P____ -1 -15.1925 44.3500 TC 6 230
1898043S08055 1898 6 SI MM NOT_NAMED 1898-02-15 18:00:00 TS -15.4000 44.1000 main 105 94 _________O____ -1 -15.4000 44.1000 TC 6 228
1898043S08055 1898 6 SI MM NOT_NAMED 1898-02-15 21:00:00 TS -15.5849 43.8999 main 94 92 _________P____ -1 -15.5849 43.8999 TC 6 224
1898043S08055 1898 6 SI MM NOT_NAMED 1898-02-16 00:00:00 TS -15.8000 43.7000 main 93 91 _________O____ -1 -15.8000 43.7000 TC 7 220
1898043S08055 1898 6 SI MM NOT_NAMED 1898-02-16 03:00:00 TS -16.0850 43.4575 main 98 98 _________P____ -1 -16.0850 43.4575 TC 8 219
1898043S08055 1898 6 SI MM NOT_NAMED 1898-02-16 06:00:00 TS -16.4000 43.2000 main 128 125 _________O____ -1 -16.4000 43.2000 TC 8 219
1898043S08055 1898 6 SI MM NOT_NAMED 1898-02-16 09:00:00 TS -16.6850 42.9424 main 138 132 _________P____ -1 -16.6850 42.9424 TC 8 219
1898043S08055 1898 6 SI MM NOT_NAMED 1898-02-16 12:00:00 TS -17.0000 42.7000 main 139 135 _________O____ -1 -17.0000 42.7000 TC 8 212
1898043S08055 1898 6 SI MM NOT_NAMED 1898-02-16 15:00:00 TS -17.3850 42.4775 main 148 148 _________P____ -1 -17.3850 42.4775 TC 9 206
1898043S08055 1898 6 SI MM NOT_NAMED 1898-02-16 18:00:00 TS -17.8000 42.3000 main 172 172 _________O____ -1 -17.8000 42.3000 TC 9 200
1898043S08055 1898 6 SI MM NOT_NAMED 1898-02-16 21:00:00 TS -18.1925 42.1774 main 190 190 _________P____ -1 -18.1925 42.1774 TC 8 193
1898043S08055 1898 6 SI MM NOT_NAMED 1898-02-17 00:00:00 TS -18.6000 42.1000 main 201 201 _________O____ -1 -18.6000 42.1000 TC 9 189
1898043S08055 1898 6 SI MM NOT_NAMED 1898-02-17 03:00:00 TS -19.0350 42.0276 main 221 221 _________P____ -1 -19.0350 42.0276 TC 9 186
1898043S08055 1898 6 SI MM NOT_NAMED 1898-02-17 06:00:00 TS -19.5000 42.0000 main 235 217 _________O____ -1 -19.5000 42.0000 TC 10 179
1898043S08055 1898 6 SI MM NOT_NAMED 1898-02-17 09:00:00 TS -20.0000 42.0349 main 217 176 _________P____ -1 -20.0000 42.0349 TC 10 174
1898043S08055 1898 6 SI MM NOT_NAMED 1898-02-17 12:00:00 TS -20.5000 42.1000 main 176 155 _________O____ -1 -20.5000 42.1000 TC 10 174
1898043S08055 1898 6 SI MM NOT_NAMED 1898-02-17 15:00:00 TS -20.9575 42.1426 main 151 131 _________P____ -1 -20.9575 42.1426 TC 9 174
1898043S08055 1898 6 SI MM NOT_NAMED 1898-02-17 18:00:00 TS -21.4000 42.2000 main 131 102 _________O____ -1 -21.4000 42.2000 TC 9 172
1898043S08055 1898 6 SI MM NOT_NAMED 1898-02-17 21:00:00 TS -21.8425 42.2777 main 102 82 _________P____ -1 -21.8425 42.2777 TC 9 168
1898043S08055 1898 6 SI MM NOT_NAMED 1898-02-18 00:00:00 TS -22.3000 42.4000 main 82 75 _________O____ -1 -22.3000 42.4000 TC 10 164
1898043S08055 1898 6 SI MM NOT_NAMED 1898-02-18 03:00:00 TS -22.7925 42.5776 main 79 75 _________P____ -1 -22.7925 42.5776 TC 11 160
1898043S08055 1898 6 SI MM NOT_NAMED 1898-02-18 06:00:00 TS -23.3000 42.8000 main 81 61 _________O____ -1 -23.3000 42.8000 TC 11 157
1898043S08055 1898 6 SI MM NOT_NAMED 1898-02-18 09:00:00 TS -23.8225 43.0499 main 62 42 _________P____ -1 -23.8225 43.0499 TC 11 155
1898043S08055 1898 6 SI MM NOT_NAMED 1898-02-18 12:00:00 TS -24.3000 43.3000 main 46 30 _________O____ -1 -24.3000 43.3000 TC 10 155
1898043S08055 1898 6 SI MM NOT_NAMED 1898-02-18 15:00:00 TS -24.6799 43.4929 main 32 30 _________P____ -1 -24.6799 43.4929 TC 8 153
1898043S08055 1898 6 SI MM NOT_NAMED 1898-02-18 18:00:00 TS -25.0000 43.7000 main 30 23 _________O____ -1 -25.0000 43.7000 TC 8 145
1898043S08055 1898 6 SI MM NOT_NAMED 1898-02-18 21:00:00 TS -25.3150 43.9850 main 30 30 _________P____ -1 -25.3150 43.9850 TC 8 138
1898043S08055 1898 6 SI MM NOT_NAMED 1898-02-19 00:00:00 TS -25.6000 44.3000 main 34 34 _________O____ -1 -25.6000 44.3000 TC 8 135
1898043S08055 1898 6 SI MM NOT_NAMED 1898-02-19 03:00:00 TS -25.8649 44.5927 main 60 53 _________P____ -1 -25.8649 44.5927 TC 7 133
1898043S08055 1898 6 SI MM NOT_NAMED 1898-02-19 06:00:00 TS -26.1000 44.9000 main 63 59 _________O____ -1 -26.1000 44.9000 TC 7 127
1898043S08055 1898 6 SI MM NOT_NAMED 1898-02-19 09:00:00 TS -26.3075 45.2501 main 78 78 _________P____ -1 -26.3075 45.2501 TC 7 123
1898043S08055 1898 6 SI MM NOT_NAMED 1898-02-19 12:00:00 TS -26.5000 45.6000 main 101 101 _________O____ -1 -26.5000 45.6000 TC 7 125
1898043S08055 1898 6 SI MM NOT_NAMED 1898-02-19 15:00:00 TS -26.7073 45.9001 main 129 129 _________P____ -1 -26.7073 45.9001 TC 7 127
1898043S08055 1898 6 SI MM NOT_NAMED 1898-02-19 18:00:00 TS -26.9000 46.2000 main 161 161 _________O____ -1 -26.9000 46.2000 TC 7 122
1898043S08055 1898 6 SI MM NOT_NAMED 1898-02-19 21:00:00 TS -27.0602 46.5373 main 194 194 _________P____ -1 -27.0602 46.5373 TC 7 116
1898043S08055 1898 6 SI MM NOT_NAMED 1898-02-20 00:00:00 TS -27.2000 46.9000 main 223 _________O____ -1 -27.2000 46.9000 TC 7 114

About IBTrACS Database

This database is a web-friendly format of International Best Track Archive for Climate Stewardship (IBTrACS), a global best track data archive curated by NOAA dating back to 1842.

Updated: 2021-12-08